Date,TemperatureHighF,TemperatureAvgF,TemperatureLowF,DewpointHighF,DewpointAvgF,DewpointLowF,HumidityHigh,HumidityAvg,HumidityLow,PressureMaxIn,PressureMinIn,WindSpeedMaxMPH,WindSpeedAvgMPH,GustSpeedMaxMPH,PrecipitationSumIn
2013-7-1,80,78,76,-100,-100,-100,0,0,100,29.96,29.83,22,15,27,0.00
2013-7-2,80,78,75,-100,-100,-100,0,0,100,30.16,29.98,22,16,27,0.00
2013-7-3,82,79,76,-100,-100,-100,0,0,100,30.22,30.16,18,12,22,0.00
2013-7-4,83,80,77,-100,-100,-100,0,0,100,30.24,30.16,20,13,27,0.00
2013-7-5,88,82,78,-100,-100,-100,0,0,100,30.22,30.11,16,12,20,0.00
2013-7-6,89,83,79,-100,-100,-100,0,0,100,30.16,30.05,16,10,18,0.00
2013-7-7,89,82,76,-100,-100,-100,0,0,100,30.10,29.97,22,11,29,0.00
2013-7-8,85,78,74,-100,-100,-100,0,0,100,30.08,30.01,13,7,18,0.00
2013-7-9,84,80,76,-100,-100,-100,0,0,100,30.08,29.98,11,8,16,0.00
2013-7-10,84,80,77,-100,-100,-100,0,0,100,30.00,29.84,18,11,25,0.00
2013-7-11,82,78,75,-100,-100,-100,0,0,100,29.90,29.82,16,9,22,0.00
2013-7-12,79,74,69,-100,-100,-100,0,0,100,29.98,29.88,25,12,29,0.00
2013-7-13,83,78,71,-100,-100,-100,0,0,100,30.25,29.98,13,7,16,0.00
2013-7-14,86,82,79,-100,-100,-100,0,0,100,30.32,30.25,16,10,18,0.00
2013-7-15,87,81,77,-100,-100,-100,0,0,100,30.29,30.15,11,7,13,0.00
2013-7-16,90,86,82,-100,-100,-100,0,0,100,30.20,30.13,16,7,20,0.00
2013-7-17,93,86,81,-100,-100,-100,0,0,100,30.18,30.07,9,5,9,0.00
2013-7-18,90,86,81,-100,-100,-100,0,0,100,30.09,29.97,13,6,16,0.00
2013-7-19,92,87,83,-100,-100,-100,0,0,100,29.98,29.85,16,9,20,0.00
2013-7-20,91,85,81,-100,-100,-100,0,0,100,29.87,29.76,16,11,22,0.00
2013-7-21,87,82,76,-100,-100,-100,0,0,100,29.92,29.85,25,6,31,0.00
2013-7-22,86,81,77,-100,-100,-100,0,0,100,29.91,29.74,20,7,22,0.00
2013-7-23,86,81,76,-100,-100,-100,0,0,100,29.74,29.61,18,9,25,0.00
2013-7-24,82,80,77,-100,-100,-100,0,0,100,29.87,29.65,16,9,20,0.00
2013-7-25,77,72,66,-100,-100,-100,0,0,100,30.00,29.87,22,14,27,0.00
2013-7-26,80,75,70,-100,-100,-100,0,0,100,30.06,29.99,13,8,16,0.00
2013-7-27,82,78,74,-100,-100,-100,0,0,100,30.03,29.91,20,13,22,0.00
2013-7-28,82,78,76,-100,-100,-100,0,0,100,29.93,29.86,18,13,22,0.00
2013-7-29,81,76,71,-100,-100,-100,0,0,100,30.13,29.93,20,10,27,0.00
2013-7-30,81,75,69,-100,-100,-100,0,0,100,30.20,30.12,11,7,13,0.00
2013-7-31,80,76,72,-100,-100,-100,0,0,100,30.13,30.01,20,8,25,0.00